createdAt,value
2022-10-24T00:01:26.036Z,6.20
2022-10-24T00:03:53.059Z,6.20
2022-10-24T00:06:20.618Z,6.10
2022-10-24T00:08:48.346Z,6.10
2022-10-24T00:11:18.604Z,6.10
2022-10-24T00:13:45.668Z,6.00
2022-10-24T00:16:13.211Z,6.00
2022-10-24T00:18:40.759Z,5.90
2022-10-24T00:21:08.535Z,5.90
2022-10-24T00:23:36.316Z,5.90
2022-10-24T00:26:04.556Z,5.90
2022-10-24T00:28:36.745Z,5.90
2022-10-24T00:31:05.362Z,5.90
2022-10-24T00:33:32.324Z,5.90
2022-10-24T00:35:59.488Z,5.90
2022-10-24T00:38:26.504Z,5.90
2022-10-24T00:40:53.568Z,5.90
2022-10-24T00:43:25.950Z,6.00
2022-10-24T00:46:01.215Z,6.00
2022-10-24T00:48:36.703Z,6.00
2022-10-24T00:51:08.218Z,6.00
2022-10-24T00:53:43.756Z,6.00
2022-10-24T00:56:13.232Z,6.00
2022-10-24T00:58:41.629Z,6.00
2022-10-24T01:01:09.242Z,6.10
2022-10-24T01:03:36.419Z,6.10
2022-10-24T01:06:27.601Z,6.10
2022-10-24T01:09:07.277Z,6.10
2022-10-24T01:12:08.394Z,6.00
2022-10-24T01:15:21.054Z,5.90
2022-10-24T01:18:18.806Z,5.80
2022-10-24T01:20:56.392Z,5.60
2022-10-24T01:24:08.741Z,5.50
2022-10-24T01:27:19.604Z,5.50
2022-10-24T01:30:07.639Z,5.40
2022-10-24T01:32:59.037Z,5.30
2022-10-24T01:35:40.550Z,5.20
2022-10-24T01:38:30.668Z,5.10
2022-10-24T01:41:07.883Z,5.00
2022-10-24T01:44:05.217Z,4.90
2022-10-24T01:46:42.922Z,4.80
2022-10-24T01:49:19.504Z,4.70
2022-10-24T01:51:49.778Z,4.70
2022-10-24T01:54:17.199Z,4.70
2022-10-24T01:56:44.125Z,4.60
2022-10-24T01:59:29.087Z,4.50
2022-10-24T02:02:08.048Z,4.40
2022-10-24T02:04:38.153Z,4.40
2022-10-24T02:07:10.387Z,4.30
2022-10-24T02:09:40.109Z,4.30
2022-10-24T02:12:10.673Z,4.20
2022-10-24T02:14:45.170Z,4.20
2022-10-24T02:17:12.436Z,4.20
2022-10-24T02:19:39.545Z,4.10
2022-10-24T02:22:30.456Z,4.20
2022-10-24T02:25:10.538Z,4.20
2022-10-24T02:27:37.517Z,4.20
2022-10-24T02:30:14.419Z,4.30
2022-10-24T02:32:44.156Z,4.30
2022-10-24T02:35:15.366Z,4.30
2022-10-24T02:37:47.617Z,4.30
2022-10-24T02:40:17.368Z,4.20
2022-10-24T02:42:47.417Z,4.20
2022-10-24T02:45:16.386Z,4.20
2022-10-24T02:47:45.494Z,4.10
2022-10-24T02:50:13.522Z,4.10
2022-10-24T02:52:43.722Z,4.10
2022-10-24T02:55:12.024Z,4.20
2022-10-24T02:57:39.505Z,4.20
2022-10-24T03:00:07.700Z,4.30
2022-10-24T03:02:34.625Z,4.30
2022-10-24T03:05:01.577Z,4.40
2022-10-24T03:07:28.500Z,4.40
2022-10-24T03:09:55.547Z,4.50
2022-10-24T03:12:23.245Z,4.60
2022-10-24T03:14:50.180Z,4.70
2022-10-24T03:17:17.104Z,4.70
2022-10-24T03:19:45.335Z,4.80
2022-10-24T03:22:12.346Z,4.90
2022-10-24T03:24:44.493Z,4.90
2022-10-24T03:27:21.820Z,5.00
2022-10-24T03:29:48.918Z,5.10
2022-10-24T08:34:39.920Z,10.00
2022-10-24T08:37:06.993Z,10.00
2022-10-24T08:39:34.025Z,10.10
2022-10-24T08:42:14.161Z,10.10
2022-10-24T08:44:44.241Z,10.00
2022-10-24T08:47:29.149Z,10.00
2022-10-24T08:50:01.576Z,10.10
2022-10-24T08:52:34.438Z,10.00
2022-10-24T08:55:20.318Z,10.00
2022-10-24T08:57:55.971Z,10.00
2022-10-24T09:00:25.945Z,10.00
2022-10-24T09:03:43.967Z,10.00
2022-10-24T09:06:19.644Z,10.00
2022-10-24T09:09:40.237Z,10.00
2022-10-24T09:12:14.013Z,10.00
2022-10-24T09:14:43.319Z,10.10
2022-10-24T09:19:59.378Z,10.30
2022-10-24T09:22:30.729Z,10.30
2022-10-24T09:25:04.299Z,10.40
2022-10-24T09:27:37.498Z,10.60
2022-10-24T09:30:06.386Z,10.60
2022-10-24T09:32:35.533Z,10.70
2022-10-24T09:35:09.502Z,10.70
2022-10-24T09:37:42.708Z,10.70
2022-10-24T09:40:26.424Z,10.70
2022-10-24T09:42:58.511Z,10.80
2022-10-24T09:45:30.977Z,10.80
2022-10-24T09:48:02.446Z,10.80
2022-10-24T09:50:33.117Z,10.90
2022-10-24T09:53:01.818Z,11.00
2022-10-24T09:55:29.694Z,11.00
2022-10-24T09:58:00.338Z,11.00
2022-10-24T10:00:31.038Z,11.00
2022-10-24T10:03:24.120Z,10.90
2022-10-24T10:05:54.652Z,10.90
2022-10-24T10:08:30.941Z,10.80
2022-10-24T10:11:08.451Z,10.80
2022-10-24T10:13:50.507Z,10.70
2022-10-24T10:16:52.991Z,10.70
2022-10-24T10:19:21.931Z,10.70
2022-10-24T10:21:56.345Z,10.70
2022-10-24T10:24:43.486Z,10.80
2022-10-24T10:27:30.539Z,10.80
2022-10-24T10:30:17.599Z,10.80
2022-10-24T10:33:23.160Z,10.90
2022-10-24T10:36:02.267Z,10.90
2022-10-24T10:38:44.555Z,11.00
2022-10-24T10:41:34.608Z,11.10
2022-10-24T10:44:25.354Z,11.10
2022-10-24T10:47:02.156Z,11.10
2022-10-24T10:49:32.778Z,11.10
2022-10-24T10:52:13.926Z,11.10
2022-10-24T10:54:49.071Z,11.10
2022-10-24T10:58:00.184Z,11.10
2022-10-24T11:00:48.159Z,11.20
2022-10-24T11:03:29.873Z,11.20
2022-10-24T11:06:12.501Z,11.20
2022-10-24T11:08:50.606Z,11.20
2022-10-24T11:11:25.035Z,11.20
2022-10-24T11:14:39.426Z,11.40
2022-10-24T11:17:30.250Z,11.50
2022-10-24T11:20:03.880Z,11.70
2022-10-24T11:22:45.912Z,11.70
2022-10-24T11:25:41.956Z,11.70
2022-10-24T11:28:14.498Z,11.60
2022-10-24T11:31:01.674Z,11.50
2022-10-24T11:33:35.628Z,11.40
2022-10-24T11:36:20.882Z,11.30
2022-10-24T11:39:11.914Z,11.30
2022-10-24T11:41:50.271Z,11.30
2022-10-24T11:44:35.043Z,11.30
2022-10-24T11:47:34.270Z,11.40
2022-10-24T11:50:05.857Z,11.30
2022-10-24T11:52:39.230Z,11.20
2022-10-24T11:55:16.598Z,11.20
2022-10-24T11:57:46.399Z,11.20
2022-10-24T12:00:21.438Z,11.20
2022-10-24T12:03:15.841Z,11.10
2022-10-24T12:06:33.581Z,11.10
2022-10-24T12:09:29.518Z,11.10
2022-10-24T12:12:08.107Z,11.00
2022-10-24T12:15:00.913Z,10.90
2022-10-24T12:18:01.954Z,10.80
2022-10-24T12:20:29.446Z,10.80
2022-10-24T12:22:57.931Z,10.90
2022-10-24T12:25:35.598Z,10.90
2022-10-24T12:28:21.527Z,10.90
2022-10-24T12:31:20.963Z,10.90
2022-10-24T12:34:15.718Z,10.80
2022-10-24T12:37:01.299Z,10.70
2022-10-24T12:39:56.088Z,10.70
2022-10-24T12:42:25.655Z,10.60
2022-10-24T12:45:32.444Z,10.70
2022-10-24T12:47:59.414Z,10.70
2022-10-24T12:50:27.714Z,10.70
2022-10-24T12:52:54.703Z,10.70
2022-10-24T12:55:50.436Z,10.60
2022-10-24T12:58:30.933Z,10.60
2022-10-24T13:01:08.021Z,10.50
2022-10-24T13:03:49.711Z,10.50
2022-10-24T13:06:31.751Z,10.40
2022-10-24T13:09:14.017Z,10.40
2022-10-24T13:12:00.377Z,10.40
2022-10-24T13:14:51.163Z,10.40
2022-10-24T13:17:59.942Z,10.50
2022-10-24T13:20:30.782Z,10.50
2022-10-24T13:23:11.754Z,10.50
2022-10-24T13:25:39.796Z,10.50
2022-10-24T13:28:24.841Z,10.50
2022-10-24T13:31:17.229Z,10.50
2022-10-24T13:33:46.191Z,10.50
2022-10-24T13:36:18.031Z,10.50
2022-10-24T13:38:50.252Z,10.60
2022-10-24T13:41:30.711Z,10.50
2022-10-24T13:44:22.010Z,10.60
2022-10-24T13:47:17.897Z,10.60
2022-10-24T13:49:56.430Z,10.60
2022-10-24T13:52:46.871Z,10.60
2022-10-24T13:55:38.229Z,10.60
2022-10-24T13:58:23.060Z,10.60
2022-10-24T14:01:03.136Z,10.60
2022-10-24T14:03:31.830Z,10.60
2022-10-24T14:06:04.213Z,10.60
2022-10-24T23:03:22.258Z,9.20
2022-10-24T23:06:00.125Z,9.20
2022-10-24T23:08:39.154Z,9.20
2022-10-24T23:11:06.639Z,9.30
2022-10-24T23:13:33.925Z,9.30
2022-10-24T23:16:09.186Z,9.30
2022-10-24T23:18:36.402Z,9.30
2022-10-24T23:21:22.570Z,9.30
2022-10-24T23:23:49.702Z,9.30
2022-10-24T23:26:34.075Z,9.30
2022-10-24T23:29:15.473Z,9.30
2022-10-24T23:31:42.612Z,9.30
2022-10-24T23:35:05.890Z,9.30
2022-10-24T23:37:53.698Z,9.30
2022-10-24T23:40:27.004Z,9.30
2022-10-24T23:42:54.418Z,9.30
2022-10-24T23:45:24.342Z,9.30
2022-10-24T23:47:57.066Z,9.40
2022-10-24T23:50:26.739Z,9.40
2022-10-24T23:53:11.725Z,9.40
2022-10-24T23:55:38.878Z,9.40
2022-10-24T23:58:05.877Z,9.40
